Time;durP1;ratioP1;P1;durP2;ratioP2;P2;SDS_P1;SDS_P2;PMS_P1;PMS_P2;Temp;Humidity;BMP_temperature;BMP_pressure;BME280_temperature;BME280_humidity;BME280_pressure;Samples;Min_cycle;Max_cycle;Signal;HPM_P1;HPM_P2
2023/05/02 00:02:11;;;;;;;7.40;3.53;;;9.70;99.90;;;;;;5051300;28;20114;-69
2023/05/02 00:04:37;;;;;;;10.20;3.28;;;9.70;99.90;;;;;;5050143;28;20040;-69
2023/05/02 00:07:03;;;;;;;8.93;2.97;;;9.70;99.90;;;;;;5050818;28;20048;-69
2023/05/02 00:09:29;;;;;;;9.43;3.05;;;9.60;99.90;;;;;;5049460;28;20040;-69
2023/05/02 00:11:54;;;;;;;7.95;3.35;;;9.60;99.90;;;;;;5051801;28;20441;-69
2023/05/02 00:14:20;;;;;;;7.35;3.55;;;9.60;99.90;;;;;;5033504;28;20068;-69
2023/05/02 00:16:46;;;;;;;9.20;3.33;;;9.50;99.90;;;;;;5051065;28;20037;-69
2023/05/02 00:19:11;;;;;;;12.80;3.40;;;9.50;99.90;;;;;;5050554;28;20045;-69
2023/05/02 00:21:37;;;;;;;10.57;3.60;;;9.50;99.90;;;;;;5051311;28;20033;-69
2023/05/02 00:24:03;;;;;;;9.30;3.58;;;9.40;99.90;;;;;;5050040;28;20039;-69
2023/05/02 00:26:29;;;;;;;6.57;2.95;;;9.40;99.90;;;;;;5050195;28;20428;-69
2023/05/02 00:28:56;;;;;;;10.82;4.20;;;9.40;99.90;;;;;;5050145;28;20090;-69
2023/05/02 00:31:22;;;;;;;8.77;3.13;;;9.40;99.90;;;;;;5032430;28;20033;-69
2023/05/02 00:33:47;;;;;;;11.27;3.95;;;9.40;99.90;;;;;;5050533;28;20517;-69
2023/05/02 00:36:18;;;;;;;6.97;3.28;;;9.40;99.90;;;;;;5049736;28;20401;-69
2023/05/02 00:38:44;;;;;;;12.10;4.28;;;9.40;99.90;;;;;;5050135;28;20045;-69
2023/05/02 00:41:10;;;;;;;6.82;3.88;;;9.40;99.90;;;;;;5050473;28;20436;-69
2023/05/02 00:43:38;;;;;;;10.48;3.28;;;9.50;99.90;;;;;;5050418;28;20040;-69
2023/05/02 00:46:05;;;;;;;8.98;3.40;;;9.50;99.90;;;;;;5050140;28;20525;-69
2023/05/02 00:48:31;;;;;;;11.50;3.63;;;9.50;99.90;;;;;;5049850;28;20041;-69
2023/05/02 00:51:04;;;;;;;11.70;5.07;;;9.50;99.90;;;;;;5049440;28;20111;-69
2023/05/02 00:53:30;;;;;;;22.77;7.10;;;9.50;99.90;;;;;;5051028;28;20048;-69
2023/05/02 00:55:57;;;;;;;14.43;6.20;;;9.50;99.90;;;;;;5034822;28;20055;-69
2023/05/02 00:58:24;;;;;;;16.27;5.43;;;9.50;99.90;;;;;;5053878;28;20037;-69
2023/05/02 01:00:52;;;;;;;23.77;7.05;;;9.40;99.90;;;;;;5053695;28;20493;-69
2023/05/02 01:03:49;;;;;;;16.58;6.35;;;9.40;99.90;;;;;;5053658;28;20049;-69
2023/05/02 01:06:27;;;;;;;21.13;6.63;;;9.30;99.90;;;;;;5052895;28;20040;-69
2023/05/02 01:09:38;;;;;;;20.10;6.18;;;9.30;99.90;;;;;;5053830;28;20087;-69
2023/05/02 01:12:08;;;;;;;24.63;6.57;;;9.30;99.90;;;;;;5052684;28;20111;-69
2023/05/02 01:14:49;;;;;;;15.15;5.85;;;9.20;99.90;;;;;;5053029;28;20045;-69
2023/05/02 01:17:16;;;;;;;19.25;5.15;;;9.10;99.90;;;;;;5053613;28;20045;-68
2023/05/02 01:19:49;;;;;;;15.57;5.38;;;9.10;99.90;;;;;;5052396;28;20084;-69
2023/05/02 01:22:16;;;;;;;14.85;4.70;;;9.10;99.90;;;;;;5053336;28;20073;-69
2023/05/02 01:25:03;;;;;;;16.45;5.22;;;9.00;99.90;;;;;;5054313;28;20493;-68
2023/05/02 01:27:54;;;;;;;14.52;4.78;;;9.00;99.90;;;;;;5068615;28;20087;-68
2023/05/02 01:30:21;;;;;;;18.98;5.13;;;9.00;99.90;;;;;;5052892;28;20041;-68
2023/05/02 01:32:50;;;;;;;16.30;4.72;;;9.00;99.90;;;;;;5052871;28;20067;-68
2023/05/02 01:35:17;;;;;;;12.40;3.83;;;8.90;99.90;;;;;;5053167;28;20033;-68
2023/05/02 01:37:46;;;;;;;21.15;6.00;;;8.90;99.90;;;;;;5054305;28;20037;-68
2023/05/02 01:40:16;;;;;;;18.52;5.18;;;8.80;99.90;;;;;;5052507;28;20091;-68
2023/05/02 01:42:43;;;;;;;16.17;5.95;;;8.80;99.90;;;;;;5052843;28;20033;-68
2023/05/02 01:45:11;;;;;;;23.85;7.47;;;8.80;99.90;;;;;;5053351;28;20076;-68
2023/05/02 01:47:39;;;;;;;20.23;6.70;;;8.80;99.90;;;;;;5051657;28;20036;-68
2023/05/02 01:50:08;;;;;;;19.20;6.72;;;8.70;99.90;;;;;;5052933;28;20123;-68
2023/05/02 01:52:36;;;;;;;16.08;5.60;;;8.70;99.90;;;;;;5052494;28;20059;-68
2023/05/02 01:55:03;;;;;;;13.05;4.68;;;8.70;99.90;;;;;;5052078;28;20044;-68
2023/05/02 01:57:30;;;;;;;19.02;6.68;;;8.60;99.90;;;;;;5053444;28;20083;-67
2023/05/02 01:59:56;;;;;;;28.33;6.95;;;8.60;99.90;;;;;;5052687;28;20048;-67
2023/05/02 02:02:26;;;;;;;17.40;6.28;;;8.60;99.90;;;;;;5051400;28;20041;-67
2023/05/02 02:04:54;;;;;;;22.08;5.47;;;8.50;99.90;;;;;;5054069;28;20044;-67
2023/05/02 02:07:20;;;;;;;18.02;5.45;;;8.50;99.90;;;;;;5051956;28;20072;-67
2023/05/02 02:09:46;;;;;;;20.92;6.15;;;8.40;99.90;;;;;;5034959;28;20041;-67
2023/05/02 02:12:19;;;;;;;21.90;5.15;;;8.40;99.90;;;;;;5053908;28;20439;-67
2023/05/02 02:14:58;;;;;;;20.88;6.18;;;8.30;99.90;;;;;;5052064;28;20143;-67
2023/05/02 02:17:36;;;;;;;16.98;5.25;;;8.30;99.90;;;;;;5053426;28;20040;-67
2023/05/02 02:20:06;;;;;;;15.52;5.47;;;8.20;99.90;;;;;;5052190;28;20383;-67
2023/05/02 02:22:36;;;;;;;17.02;5.30;;;8.20;99.90;;;;;;5051166;28;20048;-67
2023/05/02 02:25:06;;;;;;;15.13;5.25;;;8.10;99.90;;;;;;5052416;28;20119;-67
2023/05/02 02:27:32;;;;;;;20.75;5.70;;;8.10;99.90;;;;;;5051561;28;20036;-67
2023/05/02 02:29:58;;;;;;;22.50;5.55;;;8.10;99.90;;;;;;5051303;28;20037;-67
2023/05/02 02:32:24;;;;;;;19.73;4.85;;;8.10;99.90;;;;;;5051706;28;20048;-67
2023/05/02 02:34:50;;;;;;;15.88;4.82;;;8.10;99.90;;;;;;5069153;28;20120;-67
2023/05/02 02:37:19;;;;;;;15.00;4.18;;;8.10;99.90;;;;;;5050984;28;20041;-66
2023/05/02 02:39:58;;;;;;;12.93;4.50;;;8.00;99.90;;;;;;5053093;28;20110;-67
2023/05/02 02:42:39;;;;;;;13.95;5.50;;;8.10;99.90;;;;;;5052518;28;20076;-67
2023/05/02 02:45:35;;;;;;;11.00;3.85;;;8.10;99.90;;;;;;5052459;28;20546;-67
2023/05/02 02:48:36;;;;;;;12.13;4.25;;;8.10;99.90;;;;;;5052940;28;20044;-67
2023/05/02 02:51:28;;;;;;;13.93;3.75;;;8.00;99.90;;;;;;5052469;28;20052;-67
2023/05/02 02:54:06;;;;;;;15.90;4.43;;;8.00;99.90;;;;;;5053118;28;20188;-66
2023/05/02 02:56:41;;;;;;;11.90;4.32;;;8.00;99.90;;;;;;5051125;28;20509;-67
2023/05/02 02:59:25;;;;;;;;;;;8.00;99.90;;;;;;5051435;28;20480;-67
2023/05/02 03:02:12;;;;;;;13.52;3.15;;;8.00;99.90;;;;;;5052043;28;20278;-67
2023/05/02 03:04:43;;;;;;;8.82;3.42;;;8.00;99.90;;;;;;5050082;28;20044;-67
2023/05/02 03:07:09;;;;;;;6.82;2.90;;;7.90;99.90;;;;;;5051544;28;20045;-67
2023/05/02 03:09:46;;;;;;;11.38;3.05;;;7.90;99.90;;;;;;5051064;28;20045;-66
2023/05/02 03:12:12;;;;;;;12.52;3.28;;;7.90;99.90;;;;;;5052055;28;20053;-67
2023/05/02 03:14:38;;;;;;;12.93;3.67;;;7.90;99.90;;;;;;5052035;28;20053;-66
2023/05/02 03:17:04;;;;;;;9.77;2.85;;;7.90;99.90;;;;;;5051248;28;20052;-66
2023/05/02 03:19:30;;;;;;;10.85;3.08;;;7.90;99.90;;;;;;5049082;28;20037;-66
2023/05/02 03:21:56;;;;;;;11.40;3.90;;;7.90;99.90;;;;;;5051360;28;20402;-66
2023/05/02 03:24:22;;;;;;;7.60;3.13;;;7.90;99.90;;;;;;5050758;28;20385;-66
2023/05/02 03:26:47;;;;;;;10.05;2.40;;;7.90;99.90;;;;;;5050642;28;20033;-66
2023/05/02 03:29:14;;;;;;;12.65;3.35;;;7.80;99.90;;;;;;5051394;28;20397;-67
2023/05/02 03:31:40;;;;;;;10.10;2.60;;;7.80;99.90;;;;;;5050912;28;20056;-67
2023/05/02 03:34:05;;;;;;;9.70;2.60;;;7.80;99.90;;;;;;5051472;28;20537;-66
2023/05/02 03:36:31;;;;;;;10.82;2.72;;;7.80;99.90;;;;;;5050566;28;20033;-66
2023/05/02 03:38:57;;;;;;;14.25;4.15;;;7.80;99.90;;;;;;5050904;28;20095;-66
2023/05/02 03:41:23;;;;;;;12.63;2.97;;;7.80;99.90;;;;;;5049871;28;20049;-66
2023/05/02 03:43:50;;;;;;;6.07;1.90;;;7.80;99.90;;;;;;5050846;28;20486;-66
2023/05/02 03:46:15;;;;;;;5.40;1.95;;;7.80;99.90;;;;;;5033282;28;20083;-66
2023/05/02 03:48:41;;;;;;;8.55;2.22;;;7.80;99.90;;;;;;5050583;28;20044;-67
2023/05/02 03:51:08;;;;;;;6.72;2.35;;;7.80;99.90;;;;;;5050862;28;20041;-67
2023/05/02 03:53:34;;;;;;;10.38;3.17;;;7.80;99.90;;;;;;5033020;28;20123;-67
2023/05/02 03:56:00;;;;;;;8.68;2.08;;;7.70;99.90;;;;;;5034399;28;20041;-67
2023/05/02 03:58:26;;;;;;;8.48;3.20;;;7.70;99.90;;;;;;5050488;28;20393;-67
2023/05/02 04:00:52;;;;;;;6.30;2.28;;;7.70;99.90;;;;;;5050099;28;20036;-67
2023/05/02 04:03:18;;;;;;;9.50;2.40;;;7.60;99.90;;;;;;5051550;28;20041;-66
2023/05/02 04:05:45;;;;;;;9.13;2.53;;;7.70;99.90;;;;;;5050725;28;20037;-66
2023/05/02 04:08:11;;;;;;;8.90;2.47;;;7.60;99.90;;;;;;5050248;28;20068;-66
2023/05/02 04:10:37;;;;;;;10.25;2.67;;;7.60;99.90;;;;;;5050227;28;20060;-66
2023/05/02 04:13:03;;;;;;;8.52;2.33;;;7.50;99.90;;;;;;5050780;28;20421;-66
2023/05/02 04:15:30;;;;;;;8.85;2.35;;;7.50;99.90;;;;;;5049371;28;20063;-65
2023/05/02 04:17:57;;;;;;;5.70;1.90;;;7.50;99.90;;;;;;5050489;28;20052;-65
2023/05/02 04:20:22;;;;;;;9.63;2.60;;;7.50;99.90;;;;;;5051225;28;20037;-66
2023/05/02 04:22:49;;;;;;;7.68;2.10;;;7.50;99.90;;;;;;5051116;28;20508;-66
2023/05/02 04:25:15;;;;;;;9.93;2.05;;;7.60;99.90;;;;;;5050611;28;20120;-65
2023/05/02 04:27:41;;;;;;;7.78;2.00;;;7.60;99.90;;;;;;5051478;28;20080;-66
2023/05/02 04:30:09;;;;;;;8.27;2.28;;;7.50;99.90;;;;;;5034935;28;20072;-66
2023/05/02 04:32:34;;;;;;;7.72;2.05;;;7.50;99.90;;;;;;5053885;28;20226;-66
2023/05/02 04:35:00;;;;;;;7.25;2.58;;;7.60;99.90;;;;;;5055608;28;20037;-66
2023/05/02 04:37:26;;;;;;;9.98;2.85;;;7.60;99.90;;;;;;5036281;28;20060;-65
2023/05/02 04:39:51;;;;;;;8.95;2.70;;;7.60;99.90;;;;;;5037414;28;20040;-66
2023/05/02 04:42:17;;;;;;;13.07;3.08;;;7.60;99.90;;;;;;5053620;28;20520;-65
2023/05/02 04:44:43;;;;;;;8.30;3.58;;;7.60;99.90;;;;;;5053471;28;20457;-65
2023/05/02 04:47:08;;;;;;;8.15;2.75;;;7.50;99.90;;;;;;5054235;28;20079;-66
2023/05/02 04:49:34;;;;;;;10.85;2.65;;;7.50;99.90;;;;;;5052958;28;20044;-65
2023/05/02 04:52:00;;;;;;;9.68;3.00;;;7.60;99.90;;;;;;5055421;28;20041;-66
2023/05/02 04:54:26;;;;;;;8.85;2.47;;;7.50;99.90;;;;;;5053586;28;20040;-65
2023/05/02 04:56:52;;;;;;;12.50;3.00;;;7.50;99.90;;;;;;5053442;28;20037;-66
2023/05/02 04:59:18;;;;;;;8.45;2.90;;;7.50;99.90;;;;;;5053694;28;20552;-65
2023/05/02 05:01:44;;;;;;;7.10;2.72;;;7.50;99.90;;;;;;5054723;28;20078;-65
2023/05/02 05:04:09;;;;;;;7.82;2.40;;;7.50;99.90;;;;;;5053121;28;20032;-65
2023/05/02 05:06:35;;;;;;;9.00;3.20;;;7.50;99.90;;;;;;5036901;28;20037;-66
2023/05/02 05:09:01;;;;;;;9.02;2.60;;;7.50;99.90;;;;;;5053940;28;20041;-66
2023/05/02 05:11:27;;;;;;;9.50;2.55;;;7.50;99.90;;;;;;5051959;28;20414;-66
2023/05/02 05:13:52;;;;;;;8.85;2.25;;;7.50;99.90;;;;;;5054931;28;20084;-66
2023/05/02 05:16:18;;;;;;;6.32;2.35;;;7.50;99.90;;;;;;5053293;28;20409;-66
2023/05/02 05:18:44;;;;;;;15.65;2.60;;;7.50;99.90;;;;;;5052393;28;20041;-65
2023/05/02 05:21:10;;;;;;;5.60;2.20;;;7.50;99.90;;;;;;5054838;28;20037;-65
2023/05/02 05:23:36;;;;;;;10.63;3.30;;;7.50;99.90;;;;;;5052967;28;20045;-65
2023/05/02 05:26:09;;;;;;;13.25;3.35;;;7.50;99.90;;;;;;5052666;28;20033;-65
2023/05/02 05:28:35;;;;;;;7.43;2.50;;;7.60;99.90;;;;;;5054026;28;20154;-65
2023/05/02 05:31:06;;;;;;;7.22;2.90;;;7.60;99.90;;;;;;5053441;28;20083;-65
2023/05/02 05:33:32;;;;;;;10.35;3.20;;;7.60;99.90;;;;;;5051867;28;20485;-65
2023/05/02 05:36:06;;;;;;;8.07;2.35;;;7.70;99.90;;;;;;5053205;28;20041;-65
2023/05/02 05:38:32;;;;;;;10.40;2.87;;;7.70;99.90;;;;;;5053735;28;20175;-65
2023/05/02 05:40:58;;;;;;;11.55;2.88;;;7.70;99.90;;;;;;5035388;28;20044;-65
2023/05/02 05:43:25;;;;;;;8.63;3.10;;;7.70;99.90;;;;;;5052324;28;20512;-66
2023/05/02 05:45:54;;;;;;;11.25;3.42;;;7.70;99.90;;;;;;5053561;28;20482;-66
2023/05/02 05:48:21;;;;;;;10.50;3.05;;;7.70;99.90;;;;;;5053798;28;20032;-66
2023/05/02 05:50:47;;;;;;;13.43;2.65;;;7.70;99.90;;;;;;5054461;28;20116;-66
2023/05/02 05:53:13;;;;;;;8.68;2.90;;;7.80;99.90;;;;;;5053608;28;20134;-66
2023/05/02 05:55:40;;;;;;;8.20;2.88;;;7.80;99.90;;;;;;5053582;28;20470;-67
2023/05/02 05:58:07;;;;;;;9.32;2.97;;;7.80;99.90;;;;;;5049721;28;20389;-66
2023/05/02 06:00:39;;;;;;;10.70;2.88;;;7.80;99.90;;;;;;5034858;28;20433;-66
2023/05/02 06:03:05;;;;;;;13.02;3.42;;;7.80;99.90;;;;;;5033268;28;20156;-66
2023/05/02 06:05:31;;;;;;;11.35;5.10;;;7.90;99.90;;;;;;5038480;28;20040;-67
2023/05/02 06:07:57;;;;;;;20.20;12.45;;;7.90;99.90;;;;;;5068515;28;20417;-67
2023/05/02 06:10:23;;;;;;;19.88;11.60;;;7.90;99.90;;;;;;5052986;28;20074;-67
2023/05/02 06:12:49;;;;;;;36.28;24.60;;;7.90;99.90;;;;;;5052263;28;20048;-67
2023/05/02 06:15:15;;;;;;;20.52;15.43;;;7.90;99.90;;;;;;5050926;28;20501;-67
2023/05/02 06:17:41;;;;;;;23.27;14.95;;;7.90;99.90;;;;;;5052180;28;20103;-67
2023/05/02 06:20:08;;;;;;;79.50;47.70;;;7.80;99.90;;;;;;5047365;28;20080;-67
2023/05/02 06:22:34;;;;;;;27.98;15.32;;;7.80;99.90;;;;;;5031306;28;20086;-67
2023/05/02 06:24:59;;;;;;;10.35;4.18;;;7.90;99.90;;;;;;5051086;28;20464;-66
2023/05/02 06:27:25;;;;;;;11.80;4.20;;;7.90;99.90;;;;;;5049559;28;20079;-66
2023/05/02 06:29:52;;;;;;;14.43;4.68;;;7.90;99.90;;;;;;5050800;28;20458;-67
2023/05/02 06:32:18;;;;;;;9.93;2.88;;;7.90;99.90;;;;;;5050192;28;20124;-66
2023/05/02 06:34:43;;;;;;;11.20;3.85;;;7.90;99.90;;;;;;5050764;28;20129;-66
2023/05/02 06:37:09;;;;;;;8.05;3.10;;;7.90;99.90;;;;;;5047985;28;20041;-67
2023/05/02 06:39:35;;;;;;;8.00;2.30;;;7.90;99.90;;;;;;5048986;28;20084;-66
2023/05/02 06:42:01;;;;;;;9.50;3.38;;;7.90;99.90;;;;;;5049056;28;20037;-66
2023/05/02 06:44:27;;;;;;;11.27;3.08;;;7.90;99.90;;;;;;5031954;28;20033;-66
2023/05/02 06:46:54;;;;;;;11.32;2.80;;;8.00;99.90;;;;;;5032944;28;20453;-66
2023/05/02 06:49:20;;;;;;;11.30;3.53;;;8.00;99.90;;;;;;5048398;28;20052;-66
2023/05/02 06:51:46;;;;;;;7.68;2.10;;;8.00;99.90;;;;;;5049600;28;20486;-66
2023/05/02 06:54:13;;;;;;;7.63;2.95;;;8.00;99.90;;;;;;5049410;28;20051;-66
2023/05/02 06:56:39;;;;;;;8.63;2.67;;;8.00;99.90;;;;;;5048639;28;20103;-66
2023/05/02 06:59:05;;;;;;;9.15;3.55;;;8.00;99.90;;;;;;5032977;28;20053;-66
2023/05/02 07:01:30;;;;;;;12.27;2.92;;;8.00;99.90;;;;;;5031853;28;20041;-66
2023/05/02 07:03:56;;;;;;;11.45;3.10;;;8.00;99.90;;;;;;5049967;28;20385;-65
2023/05/02 07:06:23;;;;;;;9.55;3.50;;;8.00;99.90;;;;;;5048924;28;20040;-66
2023/05/02 07:08:48;;;;;;;12.15;3.00;;;8.00;99.90;;;;;;5046255;28;20040;-64
2023/05/02 07:11:14;;;;;;;9.27;2.55;;;8.10;99.90;;;;;;5046547;28;20118;-67
2023/05/02 07:13:40;;;;;;;10.57;3.28;;;8.10;99.90;;;;;;5049817;28;20044;-67
2023/05/02 07:16:06;;;;;;;7.05;2.72;;;8.10;99.90;;;;;;5047716;28;20071;-67
2023/05/02 07:18:32;;;;;;;14.60;4.05;;;8.20;99.90;;;;;;5046544;28;20130;-67
2023/05/02 07:20:57;;;;;;;9.30;2.95;;;8.30;99.90;;;;;;5048989;28;20041;-67
2023/05/02 07:23:23;;;;;;;8.80;5.20;;;8.40;99.90;;;;;;5047039;28;20068;-67
2023/05/02 07:25:49;;;;;;;14.25;5.20;;;8.40;99.90;;;;;;5048725;28;20033;-67
2023/05/02 07:28:15;;;;;;;7.55;2.72;;;8.50;99.90;;;;;;5047609;28;20157;-67
2023/05/02 07:30:40;;;;;;;8.48;2.38;;;8.60;99.90;;;;;;5048719;28;20091;-67
2023/05/02 07:33:06;;;;;;;10.70;2.97;;;8.70;99.90;;;;;;5046660;28;20040;-67
2023/05/02 07:35:32;;;;;;;8.88;2.45;;;8.70;99.90;;;;;;5046963;28;20033;-67
2023/05/02 07:37:58;;;;;;;12.82;4.07;;;8.70;99.90;;;;;;5045207;28;20033;-67
2023/05/02 07:40:23;;;;;;;7.40;3.00;;;8.80;99.90;;;;;;5047431;28;20044;-67
2023/05/02 07:42:49;;;;;;;9.60;3.83;;;8.70;99.90;;;;;;5047953;28;20041;-67
2023/05/02 07:45:15;;;;;;;9.35;3.22;;;8.70;99.90;;;;;;5046541;28;20045;-67
2023/05/02 07:47:41;;;;;;;8.35;2.75;;;8.70;99.90;;;;;;5030739;28;20387;-67
2023/05/02 07:50:08;;;;;;;9.85;2.90;;;8.80;99.90;;;;;;5048580;28;20972;-67
2023/05/02 07:52:33;;;;;;;7.57;2.17;;;8.90;99.90;;;;;;5046265;28;20536;-67
2023/05/02 07:54:59;;;;;;;9.32;2.58;;;8.90;99.90;;;;;;5029942;28;20041;-67
2023/05/02 07:57:25;;;;;;;9.02;2.85;;;8.80;99.90;;;;;;5047478;28;20410;-67
2023/05/02 07:59:51;;;;;;;7.80;2.00;;;8.90;99.90;;;;;;5047267;28;20106;-67
2023/05/02 08:02:18;;;;;;;8.85;2.85;;;8.90;99.90;;;;;;5031211;28;20490;-67
2023/05/02 08:04:46;;;;;;;6.05;1.73;;;8.90;99.90;;;;;;5051737;28;20596;-67
2023/05/02 08:07:12;;;;;;;11.40;2.55;;;9.00;99.90;;;;;;5053974;28;20450;-67
2023/05/02 08:09:37;;;;;;;5.75;2.35;;;9.10;99.90;;;;;;5055574;28;20124;-67
2023/05/02 08:12:03;;;;;;;7.60;1.60;;;9.30;99.90;;;;;;5071029;28;20064;-67
2023/05/02 08:14:29;;;;;;;6.78;1.95;;;9.30;99.90;;;;;;5054390;28;20505;-67
2023/05/02 08:16:54;;;;;;;3.85;1.50;;;9.40;99.90;;;;;;5054175;28;20478;-67
2023/05/02 08:19:20;;;;;;;7.65;2.00;;;9.40;99.90;;;;;;5054034;28;20073;-67
2023/05/02 08:21:46;;;;;;;8.13;1.88;;;9.40;99.50;;;;;;5037621;28;20048;-67
2023/05/02 08:24:11;;;;;;;4.95;1.42;;;9.40;99.00;;;;;;5055264;28;20500;-67
2023/05/02 08:26:37;;;;;;;6.82;2.05;;;9.50;99.20;;;;;;5052659;28;20789;-67
2023/05/02 08:29:03;;;;;;;6.50;1.90;;;9.40;99.10;;;;;;5054894;28;20406;-67
2023/05/02 08:31:29;;;;;;;6.57;1.50;;;9.50;99.20;;;;;;5036631;28;20056;-67
2023/05/02 08:33:55;;;;;;;5.28;1.85;;;9.50;99.30;;;;;;5056021;28;20378;-67
2023/05/02 08:36:21;;;;;;;6.53;1.52;;;9.50;99.20;;;;;;5053052;28;20105;-67
2023/05/02 08:38:46;;;;;;;7.25;3.17;;;9.50;99.40;;;;;;5052714;28;20049;-67
2023/05/02 08:41:17;;;;;;;4.25;1.65;;;9.60;99.20;;;;;;5053948;28;20103;-67
2023/05/02 08:43:46;;;;;;;4.72;1.30;;;9.70;98.70;;;;;;5052683;28;20037;-66
2023/05/02 08:46:14;;;;;;;6.40;1.67;;;9.70;98.60;;;;;;5023911;28;20029;-67
2023/05/02 08:48:42;;;;;;;3.88;1.60;;;9.80;98.80;;;;;;5036948;28;20131;-66
2023/05/02 08:51:09;;;;;;;8.23;5.00;;;9.70;97.80;;;;;;5036981;28;20056;-66
2023/05/02 08:53:37;;;;;;;4.28;1.60;;;9.60;97.10;;;;;;5053921;28;20051;-67
2023/05/02 08:56:03;;;;;;;8.35;2.22;;;9.60;97.10;;;;;;5053126;28;20350;-67
2023/05/02 08:58:31;;;;;;;7.25;2.38;;;9.60;97.40;;;;;;5053687;28;20041;-67
2023/05/02 09:01:02;;;;;;;8.68;5.13;;;9.70;97.60;;;;;;5037457;28;20107;-67
2023/05/02 09:03:35;;;;;;;10.75;4.63;;;9.80;96.60;;;;;;5054323;28;20580;-66
2023/05/02 09:06:18;;;;;;;15.77;11.63;;;9.70;96.30;;;;;;5037362;28;20117;-66
2023/05/02 09:08:51;;;;;;;5.85;2.40;;;9.70;96.10;;;;;;5037259;28;20083;-66
2023/05/02 09:11:18;;;;;;;5.80;1.65;;;9.80;96.60;;;;;;5052501;28;20539;-66
2023/05/02 09:13:45;;;;;;;5.18;1.75;;;9.90;96.60;;;;;;5053606;28;20412;-66
2023/05/02 09:16:18;;;;;;;7.43;3.28;;;9.90;95.70;;;;;;5051002;28;20048;-66
2023/05/02 09:18:56;;;;;;;5.88;2.53;;;9.90;95.80;;;;;;5050888;28;20103;-66
2023/05/02 09:21:33;;;;;;;7.95;1.90;;;10.00;96.30;;;;;;5050119;28;20037;-66
2023/05/02 09:23:59;;;;;;;5.35;1.65;;;9.90;96.90;;;;;;5049323;28;20051;-66
2023/05/02 09:26:32;;;;;;;5.28;1.50;;;9.90;97.40;;;;;;5051987;28;20037;-66
2023/05/02 09:29:03;;;;;;;8.02;2.35;;;9.90;97.90;;;;;;5037262;28;20056;-66
2023/05/02 09:31:33;;;;;;;7.35;1.40;;;9.90;98.60;;;;;;5051395;28;20045;-66
2023/05/02 09:34:12;;;;;;;9.15;1.70;;;9.90;98.80;;;;;;5053144;28;20084;-66
2023/05/02 09:36:43;;;;;;;12.50;2.97;;;9.90;98.90;;;;;;5052867;28;20037;-66
2023/05/02 09:39:14;;;;;;;5.57;2.22;;;10.10;99.10;;;;;;5052467;28;20041;-66
2023/05/02 09:41:47;;;;;;;6.50;2.47;;;10.30;99.00;;;;;;5052454;28;20555;-66
2023/05/02 09:44:15;;;;;;;5.25;1.50;;;10.40;98.20;;;;;;5053203;28;20037;-66
2023/05/02 09:46:47;;;;;;;5.15;1.77;;;10.40;98.00;;;;;;5052139;28;20095;-66
2023/05/02 09:49:22;;;;;;;6.40;2.60;;;10.50;97.90;;;;;;5052951;28;20091;-65
2023/05/02 09:51:48;;;;;;;4.85;1.30;;;10.60;98.20;;;;;;5036568;28;20040;-65
2023/05/02 09:54:35;;;;;;;11.18;3.28;;;10.60;97.90;;;;;;5053693;28;20036;-65
2023/05/02 09:57:00;;;;;;;8.70;2.83;;;10.60;96.80;;;;;;5053022;28;20059;-65
2023/05/02 09:59:26;;;;;;;3.95;1.70;;;10.70;97.20;;;;;;5052646;28;20143;-65
2023/05/02 10:02:00;;;;;;;4.95;1.30;;;10.80;97.10;;;;;;5054350;28;20037;-66
2023/05/02 10:04:27;;;;;;;6.43;1.63;;;10.90;97.10;;;;;;5035673;28;20040;-65
2023/05/02 10:06:54;;;;;;;5.68;1.90;;;10.80;97.00;;;;;;5035406;28;20283;-66
2023/05/02 10:09:22;;;;;;;4.13;1.60;;;10.70;97.10;;;;;;5053402;28;20072;-65
2023/05/02 10:11:53;;;;;;;6.80;1.98;;;10.70;97.50;;;;;;5053629;28;20080;-66
2023/05/02 10:14:24;;;;;;;6.53;1.63;;;10.60;98.00;;;;;;5034989;28;20458;-66
2023/05/02 10:17:12;;;;;;;5.60;1.90;;;10.40;99.90;;;;;;5053406;28;20080;-65
2023/05/02 10:19:56;;;;;;;5.57;1.63;;;10.20;99.90;;;;;;5015417;28;20046;-65
2023/05/02 10:22:23;;;;;;;4.63;1.52;;;10.10;99.90;;;;;;5031369;28;20103;-65
2023/05/02 10:24:49;;;;;;;7.20;1.77;;;10.10;99.90;;;;;;5034568;28;20120;-66
2023/05/02 10:27:15;;;;;;;5.25;1.73;;;10.20;99.90;;;;;;5050057;28;20120;-66
2023/05/02 10:29:42;;;;;;;6.10;2.22;;;10.30;99.90;;;;;;5035006;28;20048;-65
2023/05/02 10:32:09;;;;;;;4.93;1.60;;;10.50;99.90;;;;;;5051280;28;20041;-66
2023/05/02 10:34:35;;;;;;;6.25;1.70;;;10.40;99.90;;;;;;5033836;28;20544;-66
2023/05/02 10:37:02;;;;;;;5.47;1.70;;;10.50;99.90;;;;;;5051440;28;20077;-65
2023/05/02 10:39:28;;;;;;;7.00;1.98;;;10.40;99.90;;;;;;5050615;28;20091;-66
2023/05/02 10:41:57;;;;;;;6.97;1.75;;;10.40;99.90;;;;;;5034292;28;20037;-66
2023/05/02 10:44:37;;;;;;;6.00;1.50;;;10.40;99.90;;;;;;5050981;28;20102;-65
2023/05/02 10:47:18;;;;;;;5.30;1.45;;;10.30;99.90;;;;;;5052937;28;20040;-66
2023/05/02 10:50:00;;;;;;;5.20;1.60;;;10.10;99.90;;;;;;5047385;28;20045;-66
2023/05/02 10:52:34;;;;;;;10.15;1.85;;;10.20;99.90;;;;;;5034540;28;20470;-66
2023/05/02 10:55:18;;;;;;;4.45;1.65;;;10.40;99.90;;;;;;5035071;28;20493;-66
2023/05/02 10:57:59;;;;;;;7.55;1.90;;;10.70;99.90;;;;;;5021482;28;20188;-66
2023/05/02 11:00:25;;;;;;;4.45;1.30;;;11.00;99.90;;;;;;5030615;28;20046;-66
2023/05/02 11:02:51;;;;;;;3.50;1.00;;;11.10;99.80;;;;;;5032243;28;20037;-65
2023/05/02 11:05:17;;;;;;;6.90;1.20;;;11.30;99.20;;;;;;5032696;28;20402;-66
2023/05/02 11:07:43;;;;;;;5.35;1.88;;;11.40;98.90;;;;;;5032659;28;20540;-66
2023/05/02 11:10:20;;;;;;;5.20;1.40;;;11.50;97.90;;;;;;5045965;28;20456;-67
2023/05/02 11:12:48;;;;;;;4.50;1.63;;;11.50;98.00;;;;;;5042404;28;20045;-66
2023/05/02 11:15:40;;;;;;;3.85;1.30;;;11.30;98.60;;;;;;5018745;28;20130;-67
2023/05/02 11:18:13;;;;;;;6.13;1.40;;;11.00;99.90;;;;;;5031784;28;20053;-67
2023/05/02 11:20:40;;;;;;;4.53;1.45;;;10.70;99.90;;;;;;5049736;28;20052;-66
2023/05/02 11:23:20;;;;;;;4.93;1.73;;;10.50;99.90;;;;;;5050875;28;20047;-66
2023/05/02 11:25:48;;;;;;;10.90;1.90;;;10.30;99.90;;;;;;5048979;28;20072;-66
2023/05/02 11:28:33;;;;;;;4.80;1.42;;;10.30;99.90;;;;;;5050926;28;20044;-66
2023/05/02 11:30:59;;;;;;;6.50;1.67;;;10.30;99.90;;;;;;5051558;28;20048;-66
2023/05/02 11:33:27;;;;;;;7.00;2.00;;;10.20;99.90;;;;;;5051410;28;20120;-65
2023/05/02 11:35:52;;;;;;;5.35;1.63;;;10.20;99.90;;;;;;5051099;28;20452;-68
2023/05/02 11:38:19;;;;;;;5.00;1.40;;;10.30;99.90;;;;;;5049793;28;20127;-68
2023/05/02 11:40:55;;;;;;;5.25;1.88;;;10.40;99.90;;;;;;5051718;28;20029;-69
2023/05/02 11:43:23;;;;;;;5.43;1.30;;;10.40;99.90;;;;;;5050292;28;20115;-68
2023/05/02 11:45:50;;;;;;;3.75;1.17;;;10.40;99.90;;;;;;5049680;28;20045;-66
2023/05/02 11:48:18;;;;;;;5.53;1.52;;;10.30;99.90;;;;;;5050287;28;20044;-68
2023/05/02 11:50:45;;;;;;;3.47;1.20;;;10.30;99.90;;;;;;5050395;28;20483;-68
2023/05/02 11:53:15;;;;;;;4.30;0.98;;;10.20;99.90;;;;;;5033453;28;20048;-67
2023/05/02 11:55:46;;;;;;;2.53;1.10;;;10.30;99.90;;;;;;5050356;28;20052;-68
2023/05/02 11:58:13;;;;;;;2.60;0.80;;;10.30;98.90;;;;;;5034538;28;20381;-68
2023/05/02 12:00:39;;;;;;;3.45;1.02;;;10.20;98.70;;;;;;5051056;28;20138;-67
2023/05/02 12:03:05;;;;;;;2.20;0.80;;;10.20;98.80;;;;;;5050819;28;20095;-67
2023/05/02 12:05:31;;;;;;;3.13;0.90;;;10.20;99.10;;;;;;5051112;28;20037;-67
2023/05/02 12:07:57;;;;;;;3.50;1.40;;;10.20;98.80;;;;;;5052350;28;20040;-67
2023/05/02 12:10:34;;;;;;;3.22;0.90;;;10.20;98.10;;;;;;5051331;28;20053;-67
2023/05/02 12:13:05;;;;;;;2.90;1.00;;;10.40;98.50;;;;;;5050095;28;20529;-67
2023/05/02 12:15:31;;;;;;;3.53;1.25;;;10.60;98.70;;;;;;5050559;28;20116;-67
2023/05/02 12:17:56;;;;;;;4.40;1.20;;;11.00;98.60;;;;;;5067347;28;20497;-67
2023/05/02 12:20:22;;;;;;;10.18;1.25;;;11.10;97.50;;;;;;5048904;28;20068;-67
2023/05/02 12:22:48;;;;;;;7.97;1.30;;;11.10;97.70;;;;;;5050652;28;20080;-68
2023/05/02 12:25:14;;;;;;;4.65;1.20;;;11.00;98.10;;;;;;5051773;28;20112;-68
2023/05/02 12:27:40;;;;;;;4.47;1.20;;;10.90;98.70;;;;;;5050994;28;20041;-68
2023/05/02 12:30:06;;;;;;;3.72;1.48;;;10.80;98.90;;;;;;5050936;28;20063;-67
2023/05/02 12:32:33;;;;;;;4.35;1.00;;;10.70;99.60;;;;;;5051278;28;20048;-68
2023/05/02 12:35:01;;;;;;;3.75;1.15;;;10.70;99.90;;;;;;5049620;28;20037;-67
2023/05/02 12:37:27;;;;;;;4.85;1.10;;;10.60;99.90;;;;;;5051169;28;20048;-67
2023/05/02 12:39:54;;;;;;;7.22;1.58;;;10.40;99.90;;;;;;5049952;28;20091;-68
2023/05/02 12:42:21;;;;;;;7.90;1.63;;;10.30;99.90;;;;;;5050414;28;20090;-68
2023/05/02 12:44:51;;;;;;;6.40;1.25;;;10.30;99.90;;;;;;5031227;28;20033;-68
2023/05/02 12:47:18;;;;;;;6.80;1.33;;;10.30;99.90;;;;;;5013958;28;20398;-66
2023/05/02 12:49:49;;;;;;;2.65;0.90;;;10.40;99.90;;;;;;5030843;28;20045;-67
2023/05/02 12:52:17;;;;;;;3.80;0.95;;;10.60;99.90;;;;;;5033892;28;20045;-66
2023/05/02 12:54:42;;;;;;;5.22;1.10;;;10.70;99.90;;;;;;5034978;28;20077;-66
2023/05/02 12:57:09;;;;;;;2.67;1.02;;;10.70;99.90;;;;;;5037823;28;20533;-66
2023/05/02 12:59:34;;;;;;;7.38;1.23;;;10.80;99.90;;;;;;5053442;28;20577;-66